createdAt,value
2022-08-22T00:00:16.194Z,98558.50
2022-08-22T00:03:10.646Z,98542.16
2022-08-22T00:03:36.016Z,98552.69
2022-08-22T00:06:26.375Z,98549.63
2022-08-22T00:09:45.876Z,98556.78
2022-08-22T00:12:43.086Z,98553.63
2022-08-22T00:15:43.417Z,98549.16
2022-08-22T00:18:31.735Z,98553.75
2022-08-22T00:21:42.317Z,98547.81
2022-08-22T00:24:47.860Z,98546.09
2022-08-22T00:27:26.918Z,98540.88
2022-08-22T00:30:09.143Z,98541.94
2022-08-22T00:32:46.784Z,98549.13
2022-08-22T00:35:41.639Z,98541.22
2022-08-22T00:38:31.093Z,98543.78
2022-08-22T00:41:16.592Z,98543.66
2022-08-22T00:44:11.975Z,98546.44
2022-08-22T00:47:00.746Z,98542.19
2022-08-22T00:50:13.209Z,98536.00
2022-08-22T00:53:04.211Z,98536.22
2022-08-22T00:55:49.767Z,98541.44
2022-08-22T00:59:23.468Z,98535.16
2022-08-22T01:02:28.075Z,98535.28
2022-08-22T01:05:24.024Z,98536.84
2022-08-22T01:08:33.858Z,98534.16
2022-08-22T01:11:22.147Z,98534.91
2022-08-22T01:14:39.821Z,98529.56
2022-08-22T01:17:44.371Z,98525.44
2022-08-22T01:20:40.926Z,98535.28
2022-08-22T01:23:58.628Z,98535.16
2022-08-22T01:27:16.682Z,98528.09
2022-08-22T01:30:20.563Z,98528.81
2022-08-22T01:33:32.688Z,98518.63
2022-08-22T01:36:08.081Z,98525.44
2022-08-22T01:38:52.113Z,98524.34
2022-08-22T01:41:51.103Z,98524.34
2022-08-22T01:44:56.598Z,98521.31
2022-08-22T01:47:56.168Z,98526.78
2022-08-22T01:50:53.177Z,98516.78
2022-08-22T01:53:38.871Z,98514.88
2022-08-22T01:56:20.428Z,98512.94
2022-08-22T01:59:11.338Z,98511.34
2022-08-22T02:01:51.098Z,98508.66
2022-08-22T02:05:02.800Z,98516.69
2022-08-22T02:08:15.050Z,98516.69
2022-08-22T02:10:57.300Z,98509.06
2022-08-22T02:13:51.447Z,98512.56
2022-08-22T02:16:33.673Z,98508.78
2022-08-22T02:19:33.100Z,98513.28
2022-08-22T02:22:55.446Z,98503.72
2022-08-22T02:25:32.747Z,98511.97
2022-08-22T02:28:15.717Z,98508.19
2022-08-22T02:31:10.379Z,98512.06
2022-08-22T02:33:46.622Z,98506.00
2022-08-22T02:36:53.884Z,98500.91
2022-08-22T02:40:05.025Z,98512.78
2022-08-22T02:43:18.468Z,98509.25
2022-08-22T02:46:21.859Z,98503.09
2022-08-22T02:48:59.569Z,98506.94
2022-08-22T02:51:32.673Z,98503.56
2022-08-22T02:54:38.287Z,98506.00
2022-08-22T02:57:14.529Z,98503.19
2022-08-22T03:00:32.577Z,98505.97
2022-08-22T03:03:03.948Z,98501.13
2022-08-22T03:05:36.570Z,98503.19
2022-08-22T03:08:36.133Z,98504.03
2022-08-22T03:11:27.241Z,98512.03
2022-08-22T03:13:54.427Z,98503.78
2022-08-22T03:16:28.619Z,98508.63
2022-08-22T03:19:27.794Z,98500.63
2022-08-22T03:22:07.295Z,98498.94
2022-08-22T03:25:03.943Z,98499.06
2022-08-22T03:27:46.203Z,98503.41
2022-08-22T03:30:30.868Z,98490.75
2022-08-22T03:33:14.944Z,98496.22
2022-08-22T03:35:42.243Z,98493.75
2022-08-22T03:38:21.069Z,98502.16
2022-08-22T03:41:13.087Z,98500.75
2022-08-22T03:44:04.777Z,98502.91
2022-08-22T03:47:26.575Z,98505.69
2022-08-22T03:50:46.325Z,98505.47
2022-08-22T03:53:36.179Z,98508.13
2022-08-22T03:57:00.265Z,98503.66
2022-08-22T03:59:43.931Z,98511.31
2022-08-22T04:02:43.195Z,98508.63
2022-08-22T04:05:44.233Z,98516.13
2022-08-22T04:08:45.161Z,98513.59
2022-08-22T04:11:31.742Z,98515.88
2022-08-22T04:14:13.267Z,98513.09
2022-08-22T04:17:11.015Z,98521.22
2022-08-22T04:20:20.889Z,98514.81
2022-08-22T04:23:15.023Z,98518.19
2022-08-22T04:26:12.655Z,98531.19
2022-08-22T04:28:58.989Z,98536.78
2022-08-22T04:31:46.455Z,98532.16
2022-08-22T04:34:34.188Z,98538.72
2022-08-22T04:37:29.699Z,98533.72
2022-08-22T04:40:15.336Z,98535.31
2022-08-22T04:42:53.575Z,98535.19
2022-08-22T04:45:34.663Z,98537.97
2022-08-22T04:48:12.627Z,98530.72
2022-08-22T04:50:53.262Z,98535.31
2022-08-22T04:53:52.773Z,98544.38
2022-08-22T04:57:04.902Z,98542.69
2022-08-22T04:59:33.971Z,98552.50
2022-08-22T05:02:07.150Z,98547.66
2022-08-22T05:05:04.428Z,98537.59
2022-08-22T05:07:39.798Z,98549.22
2022-08-22T05:10:24.595Z,98549.34
2022-08-22T05:13:09.776Z,98553.59
2022-08-22T05:15:44.207Z,98543.78
2022-08-22T05:18:29.576Z,98554.56
2022-08-22T05:21:05.025Z,98549.00
2022-08-22T05:23:52.395Z,98553.59
2022-08-22T05:26:21.762Z,98551.91
2022-08-22T05:29:08.163Z,98549.69
2022-08-22T05:31:45.745Z,98553.94
2022-08-22T05:34:23.928Z,98557.56
2022-08-22T05:37:04.640Z,98548.72
2022-08-22T05:39:40.467Z,98554.78
2022-08-22T05:42:15.592Z,98547.66
2022-08-22T05:44:42.851Z,98547.66
2022-08-22T05:47:21.493Z,98544.72
2022-08-22T05:50:07.163Z,98548.88
2022-08-22T05:53:11.797Z,98559.78
2022-08-22T05:55:53.807Z,98561.00
2022-08-22T05:58:38.972Z,98557.41
2022-08-22T06:01:27.764Z,98562.38
2022-08-22T06:04:31.439Z,98558.13
2022-08-22T06:07:17.679Z,98561.75
2022-08-22T06:09:47.572Z,98559.34
2022-08-22T06:12:22.614Z,98552.41
2022-08-22T06:15:15.136Z,98554.59
2022-08-22T06:17:59.889Z,98563.97
2022-08-22T06:20:52.456Z,98557.41
2022-08-22T06:23:41.188Z,98564.94
2022-08-22T06:26:21.058Z,98570.06
2022-08-22T06:28:55.760Z,98568.00
2022-08-22T06:31:32.188Z,98567.16
2022-08-22T06:34:28.678Z,98563.28
2022-08-22T06:37:02.049Z,98560.84
2022-08-22T06:39:34.781Z,98572.50
2022-08-22T06:42:22.747Z,98569.47
2022-08-22T06:45:12.244Z,98570.22
2022-08-22T06:47:58.029Z,98576.66
2022-08-22T06:50:58.668Z,98570.97
2022-08-22T06:53:33.991Z,98572.88
2022-08-22T06:56:06.065Z,98570.47
2022-08-22T06:58:40.502Z,98586.00
2022-08-22T07:01:26.388Z,98588.19
2022-08-22T07:04:02.871Z,98581.53
2022-08-22T07:06:36.150Z,98576.91
2022-08-22T07:09:06.831Z,98578.72
2022-08-22T07:11:39.904Z,98584.31
2022-08-22T07:14:17.140Z,98576.56
2022-08-22T07:17:01.916Z,98576.13
2022-08-22T07:19:34.663Z,98578.66
2022-08-22T07:22:25.070Z,98573.56
2022-08-22T07:25:02.254Z,98569.31
2022-08-22T07:27:38.441Z,98582.78
2022-08-22T07:30:28.000Z,98584.13
2022-08-22T07:33:26.449Z,98580.38
2022-08-22T07:36:04.104Z,98582.03
2022-08-22T07:38:45.166Z,98581.22
2022-08-22T07:41:22.489Z,98582.19
2022-08-22T07:44:06.033Z,98577.22
2022-08-22T07:46:44.112Z,98583.03
2022-08-22T07:49:24.666Z,98584.97
2022-08-22T07:51:59.219Z,98583.63
2022-08-22T07:54:47.175Z,98584.72
2022-08-22T07:57:29.610Z,98577.19
2022-08-22T08:00:01.059Z,98576.59
2022-08-22T08:02:29.096Z,98582.03
2022-08-22T08:05:00.476Z,98577.06
2022-08-22T08:07:32.089Z,98578.38
2022-08-22T08:10:12.785Z,98581.41
2022-08-22T08:13:01.982Z,98582.53
2022-08-22T08:15:34.629Z,98584.91
2022-08-22T08:18:21.972Z,98590.59
2022-08-22T08:21:02.083Z,98595.34
2022-08-22T08:23:39.673Z,98594.13
2022-08-22T08:26:29.135Z,98588.72
2022-08-22T08:28:59.455Z,98591.75
2022-08-22T08:31:39.828Z,98592.06
2022-08-22T08:34:25.938Z,98599.47
2022-08-22T08:37:12.807Z,98591.69
2022-08-22T08:39:50.597Z,98583.44
2022-08-22T08:43:26.847Z,98595.38
2022-08-22T08:46:18.037Z,98588.94
2022-08-22T08:49:10.678Z,98586.56
2022-08-22T08:52:34.350Z,98590.00
2022-08-22T08:55:22.017Z,98585.38
2022-08-22T08:58:27.457Z,98584.19
2022-08-22T09:01:27.495Z,98583.66
2022-08-22T09:04:25.278Z,98591.69
2022-08-22T09:07:36.696Z,98590.59
2022-08-22T09:11:01.714Z,98588.41
2022-08-22T09:13:59.191Z,98590.44
2022-08-22T09:17:06.814Z,98590.78
2022-08-22T09:20:20.100Z,98592.25
2022-08-22T09:23:14.972Z,98596.00
2022-08-22T09:25:52.324Z,98601.13
2022-08-22T09:28:38.791Z,98595.03
2022-08-22T09:31:51.426Z,98595.16
2022-08-22T09:34:38.191Z,98601.59
2022-08-22T09:37:17.953Z,98599.63
2022-08-22T09:40:05.714Z,98600.84
2022-08-22T09:43:07.096Z,98602.00
2022-08-22T09:46:14.402Z,98602.25
2022-08-22T09:49:00.460Z,98606.66
2022-08-22T09:51:56.414Z,98605.16
2022-08-22T09:54:48.614Z,98604.91
2022-08-22T09:57:27.680Z,98609.91
2022-08-22T10:00:25.659Z,98611.88
2022-08-22T10:03:16.057Z,98608.13
2022-08-22T10:05:44.306Z,98611.31
2022-08-22T10:08:56.568Z,98614.84
2022-08-22T10:11:34.209Z,98612.53
2022-08-22T10:14:28.023Z,98617.53
2022-08-22T10:17:30.563Z,98624.47
2022-08-22T10:20:23.189Z,98628.47
2022-08-22T10:23:35.056Z,98627.66
2022-08-22T10:26:22.626Z,98630.72
2022-08-22T10:29:10.610Z,98630.13
2022-08-22T10:31:59.529Z,98627.69
2022-08-22T10:34:42.932Z,98635.13
2022-08-22T10:37:25.059Z,98627.59
2022-08-22T10:40:10.841Z,98633.22
2022-08-22T10:42:52.321Z,98625.53
2022-08-22T10:45:36.312Z,98628.94
2022-08-22T10:48:35.685Z,98630.41
2022-08-22T10:51:20.010Z,98628.09
2022-08-22T10:54:19.970Z,98632.25
2022-08-22T10:57:07.398Z,98629.69
2022-08-22T10:59:52.369Z,98623.72
2022-08-22T11:02:38.526Z,98626.16
2022-08-22T11:05:30.298Z,98622.16
2022-08-22T11:08:18.438Z,98624.59
2022-08-22T11:11:09.898Z,98620.56
2022-08-22T11:14:12.378Z,98620.31
2022-08-22T11:17:35.530Z,98622.50
2022-08-22T11:20:30.376Z,98615.34
2022-08-22T11:23:30.740Z,98619.56
2022-08-22T11:26:30.148Z,98619.84
2022-08-22T11:29:53.957Z,98616.03
2022-08-22T11:32:49.683Z,98618.84
2022-08-22T11:35:47.256Z,98620.78
2022-08-22T11:38:56.281Z,98616.28
2022-08-22T11:42:11.863Z,98620.19
2022-08-22T11:44:51.874Z,98612.53
2022-08-22T11:47:28.255Z,98611.63
2022-08-22T11:50:10.737Z,98609.97
2022-08-22T11:53:08.565Z,98609.09
2022-08-22T11:55:55.026Z,98616.88
2022-08-22T11:58:30.853Z,98615.75
2022-08-22T12:01:28.153Z,98614.34
2022-08-22T12:04:12.920Z,98617.47
2022-08-22T12:06:57.911Z,98621.13
2022-08-22T12:09:50.555Z,98621.72
2022-08-22T12:12:29.518Z,98627.91
2022-08-22T12:15:13.323Z,98629.03
2022-08-22T12:18:21.290Z,98626.00
2022-08-22T12:21:38.487Z,98619.91
2022-08-22T12:24:20.869Z,98619.19
2022-08-22T12:27:49.705Z,98616.00
2022-08-22T12:30:41.976Z,98614.66
2022-08-22T12:33:39.496Z,98617.13
2022-08-22T12:36:36.286Z,98617.47
2022-08-22T12:39:42.766Z,98621.03
2022-08-22T12:42:53.170Z,98617.25
2022-08-22T12:45:50.706Z,98619.06
2022-08-22T12:48:57.824Z,98619.91
2022-08-22T12:51:55.782Z,98613.63
2022-08-22T12:54:54.769Z,98607.06
2022-08-22T12:57:50.504Z,98606.94
2022-08-22T13:00:45.157Z,98620.69
2022-08-22T13:03:37.257Z,98613.84
2022-08-22T13:06:35.754Z,98622.63
2022-08-22T13:09:09.873Z,98618.63
2022-08-22T13:11:41.451Z,98609.88
2022-08-22T13:14:18.559Z,98618.03
2022-08-22T13:16:54.693Z,98613.50
2022-08-22T13:19:28.952Z,98617.53
2022-08-22T13:22:02.241Z,98618.56
2022-08-22T13:24:45.928Z,98614.66
2022-08-22T13:27:36.485Z,98618.34
2022-08-22T13:30:17.511Z,98621.84
2022-08-22T13:32:50.065Z,98611.16
2022-08-22T13:35:36.133Z,98612.34
2022-08-22T13:38:23.794Z,98614.19
2022-08-22T13:40:57.516Z,98613.09
2022-08-22T13:43:35.616Z,98612.03
2022-08-22T13:46:10.953Z,98615.28
2022-08-22T13:48:55.727Z,98611.59
2022-08-22T13:52:29.797Z,98611.00
2022-08-22T13:55:00.700Z,98614.38
2022-08-22T13:58:06.896Z,98613.81
2022-08-22T14:01:25.468Z,98614.94
2022-08-22T14:04:36.297Z,98607.97
2022-08-22T14:07:06.265Z,98600.53
2022-08-22T14:09:54.348Z,98610.94
2022-08-22T14:12:51.117Z,98600.44
2022-08-22T14:15:32.223Z,98603.94
2022-08-22T14:18:30.344Z,98600.06
2022-08-22T14:21:17.311Z,98605.75
2022-08-22T14:23:50.453Z,98611.34
2022-08-22T14:26:36.628Z,98602.81
2022-08-22T14:29:14.317Z,98608.13
2022-08-22T14:31:41.918Z,98604.00
2022-08-22T14:34:15.850Z,98604.22
2022-08-22T14:36:53.677Z,98606.38
2022-08-22T14:39:29.710Z,98597.28
2022-08-22T14:42:13.808Z,98600.06
2022-08-22T14:44:53.183Z,98599.22
2022-08-22T14:47:55.227Z,98601.91
2022-08-22T14:50:54.407Z,98593.56
2022-08-22T14:53:30.981Z,98592.78
2022-08-22T14:56:12.267Z,98594.50
2022-08-22T14:59:12.263Z,98594.50
2022-08-22T15:02:01.661Z,98595.25
2022-08-22T15:04:52.505Z,98602.81
2022-08-22T15:07:34.896Z,98605.16
2022-08-22T15:10:21.616Z,98604.81
2022-08-22T15:12:55.744Z,98609.81
2022-08-22T15:15:53.397Z,98608.97
2022-08-22T15:18:28.853Z,98608.13
2022-08-22T15:21:24.107Z,98611.63
2022-08-22T15:23:59.452Z,98606.19
2022-08-22T15:26:36.266Z,98612.59
2022-08-22T15:29:16.258Z,98602.91
2022-08-22T15:31:46.460Z,98610.03
2022-08-22T15:34:35.688Z,98597.69
2022-08-22T15:37:22.643Z,98602.13
2022-08-22T15:40:11.528Z,98601.38
2022-08-22T15:42:50.668Z,98601.31
2022-08-22T15:45:30.298Z,98601.38
2022-08-22T15:48:04.898Z,98601.72
2022-08-22T15:50:55.478Z,98599.41
2022-08-22T15:53:47.686Z,98596.84
2022-08-22T15:56:30.222Z,98598.03
2022-08-22T15:59:53.406Z,98594.72
2022-08-22T16:02:35.570Z,98598.13
2022-08-22T16:05:23.598Z,98594.72
2022-08-22T16:08:32.817Z,98592.69
2022-08-22T16:11:03.386Z,98582.13
2022-08-22T16:13:30.235Z,98583.34
2022-08-22T16:16:08.108Z,98586.63
2022-08-22T16:18:39.239Z,98588.44
2022-08-22T16:21:33.375Z,98594.28
2022-08-22T16:24:00.940Z,98588.13
2022-08-22T16:26:30.816Z,98587.13
2022-08-22T16:29:14.745Z,98591.84
2022-08-22T16:31:44.925Z,98584.44
2022-08-22T16:34:17.909Z,98597.50
2022-08-22T16:37:03.255Z,98590.72
2022-08-22T16:39:48.246Z,98582.09
2022-08-22T16:42:23.974Z,98592.25
2022-08-22T16:45:39.692Z,98584.69
2022-08-22T16:48:33.956Z,98597.28
2022-08-22T16:51:15.580Z,98590.44
2022-08-22T16:54:09.073Z,98591.66
2022-08-22T16:56:52.143Z,98593.78
2022-08-22T16:59:38.407Z,98588.16
2022-08-22T17:02:33.726Z,98595.13
2022-08-22T17:05:14.591Z,98601.94
2022-08-22T17:08:06.788Z,98606.00
2022-08-22T17:11:20.910Z,98599.28
2022-08-22T17:14:17.692Z,98595.88
2022-08-22T17:17:10.304Z,98606.00
2022-08-22T17:20:22.463Z,98604.09
2022-08-22T17:23:17.551Z,98607.91
2022-08-22T17:26:05.673Z,98618.75
2022-08-22T17:28:47.835Z,98615.25
2022-08-22T17:31:46.334Z,98615.47
2022-08-22T17:34:45.390Z,98613.13
2022-08-22T17:37:35.938Z,98613.44
2022-08-22T17:40:53.931Z,98613.00
2022-08-22T17:43:52.250Z,98607.91
2022-08-22T17:46:52.847Z,98606.41
2022-08-22T17:49:29.266Z,98611.72
2022-08-22T17:52:01.612Z,98618.56
2022-08-22T17:54:52.519Z,98613.22
2022-08-22T17:58:37.902Z,98613.00
2022-08-22T18:01:45.991Z,98615.88
2022-08-22T18:04:58.394Z,98614.28
2022-08-22T18:07:51.889Z,98619.09
2022-08-22T18:10:38.781Z,98618.66
2022-08-22T18:13:20.098Z,98615.25
2022-08-22T18:16:08.145Z,98619.41
2022-08-22T18:18:46.465Z,98621.94
2022-08-22T18:21:42.884Z,98622.50
2022-08-22T18:24:10.471Z,98623.34
2022-08-22T18:26:55.394Z,98622.38
2022-08-22T18:29:42.462Z,98630.59
2022-08-22T18:32:19.524Z,98628.78
2022-08-22T18:35:17.483Z,98629.41
2022-08-22T18:37:55.089Z,98630.25
2022-08-22T18:40:36.341Z,98634.63
2022-08-22T18:43:26.635Z,98627.50
2022-08-22T18:46:03.646Z,98630.81
2022-08-22T18:48:34.318Z,98631.78
2022-08-22T18:51:38.208Z,98634.34
2022-08-22T18:54:08.312Z,98637.19
2022-08-22T18:57:07.075Z,98641.38
2022-08-22T18:59:47.807Z,98635.19
2022-08-22T19:02:59.493Z,98640.44
2022-08-22T19:06:08.669Z,98641.53
2022-08-22T19:09:35.484Z,98640.44
2022-08-22T19:12:36.346Z,98644.34
2022-08-22T19:15:44.311Z,98640.97
2022-08-22T19:18:37.100Z,98646.28
2022-08-22T19:21:49.661Z,98639.25
2022-08-22T19:24:19.657Z,98648.31
2022-08-22T19:27:09.001Z,98639.03
2022-08-22T19:29:36.089Z,98644.56
2022-08-22T19:32:12.783Z,98651.59
2022-08-22T19:34:46.865Z,98648.84
2022-08-22T19:37:31.753Z,98639.88
2022-08-22T19:40:02.658Z,98646.81
2022-08-22T19:42:38.092Z,98639.13
2022-08-22T19:45:29.007Z,98644.78
2022-08-22T19:48:11.757Z,98644.78
2022-08-22T19:50:43.369Z,98640.13
2022-08-22T19:53:46.070Z,98641.38
2022-08-22T19:56:32.664Z,98639.34
2022-08-22T19:59:50.759Z,98638.41
2022-08-22T20:02:27.453Z,98638.59
2022-08-22T20:05:33.203Z,98645.00
2022-08-22T20:08:32.628Z,98640.53
2022-08-22T20:11:37.830Z,98638.16
2022-08-22T20:14:24.976Z,98635.38
2022-08-22T20:17:25.395Z,98629.97
2022-08-22T20:23:15.452Z,98630.91
2022-08-22T20:25:50.691Z,98627.50
2022-08-22T20:28:55.460Z,98625.56
2022-08-22T20:31:30.427Z,98635.59
2022-08-22T20:34:15.838Z,98639.75
2022-08-22T20:36:46.956Z,98634.53
2022-08-22T20:39:35.912Z,98628.56
2022-08-22T20:42:09.798Z,98625.28
2022-08-22T20:44:53.389Z,98629.72
2022-08-22T20:47:36.167Z,98625.59
2022-08-22T20:50:12.055Z,98614.09
2022-08-22T20:52:54.295Z,98623.88
2022-08-22T20:55:31.394Z,98617.69
2022-08-22T20:58:17.966Z,98616.09
2022-08-22T21:00:51.135Z,98614.50
2022-08-22T21:03:43.833Z,98616.44
2022-08-22T21:06:18.788Z,98607.47
2022-08-22T21:09:08.109Z,98613.75
2022-08-22T21:11:41.065Z,98607.66
2022-08-22T21:14:27.569Z,98612.25
2022-08-22T21:16:54.656Z,98602.59
2022-08-22T21:19:28.907Z,98608.84
2022-08-22T21:22:25.203Z,98615.13
2022-08-22T21:24:57.477Z,98602.03
2022-08-22T21:27:35.059Z,98598.41
2022-08-22T21:30:08.484Z,98605.34
2022-08-22T21:32:50.059Z,98604.47
2022-08-22T21:35:31.847Z,98613.13
2022-08-22T21:38:01.593Z,98603.31
2022-08-22T21:40:35.840Z,98610.22
2022-08-22T21:43:07.524Z,98606.53
2022-08-22T21:45:37.341Z,98604.81
2022-08-22T21:48:36.445Z,98604.81
2022-08-22T21:51:42.054Z,98604.81
2022-08-22T21:54:40.002Z,98604.06
2022-08-22T21:57:09.895Z,98604.06
2022-08-22T21:59:59.662Z,98604.06
2022-08-22T22:02:40.234Z,98607.03
2022-08-22T22:05:17.624Z,98605.97
2022-08-22T22:07:47.530Z,98604.06
2022-08-22T22:10:19.232Z,98605.69
2022-08-22T22:12:49.618Z,98604.81
2022-08-22T22:15:24.762Z,98604.59
2022-08-22T22:17:52.078Z,98611.09
2022-08-22T22:20:22.220Z,98602.91
2022-08-22T22:22:50.631Z,98600.13
2022-08-22T22:25:38.853Z,98598.53
2022-08-22T22:28:14.763Z,98597.34
2022-08-22T22:30:43.357Z,98602.66
2022-08-22T22:33:11.184Z,98595.66
2022-08-22T22:35:40.599Z,98593.31
2022-08-22T22:38:09.108Z,98588.09
2022-08-22T22:40:36.550Z,98584.47
2022-08-22T22:43:03.956Z,98587.97
2022-08-22T22:45:30.976Z,98588.81
2022-08-22T22:47:58.128Z,98586.50
2022-08-22T22:50:25.485Z,98582.13
2022-08-22T22:52:54.049Z,98585.72
2022-08-22T22:55:24.675Z,98587.56
2022-08-22T22:57:58.575Z,98578.81
2022-08-22T23:00:34.620Z,98571.69
2022-08-22T23:03:06.418Z,98577.66
2022-08-22T23:05:34.251Z,98570.75
2022-08-22T23:08:01.800Z,98567.09
2022-08-22T23:10:30.828Z,98563.28
2022-08-22T23:12:59.029Z,98568.72
2022-08-22T23:15:26.743Z,98572.94
2022-08-22T23:17:53.758Z,98567.72
2022-08-22T23:20:20.808Z,98569.34
2022-08-22T23:22:48.245Z,98569.97
2022-08-22T23:25:15.532Z,98567.13
2022-08-22T23:27:43.106Z,98566.16
2022-08-22T23:30:11.209Z,98567.22
2022-08-22T23:32:38.658Z,98561.56
2022-08-22T23:35:07.628Z,98560.84
2022-08-22T23:37:35.277Z,98559.66
2022-08-22T23:40:03.353Z,98557.09
2022-08-22T23:42:30.497Z,98552.53
2022-08-22T23:44:57.311Z,98556.97
2022-08-22T23:47:24.310Z,98558.50
2022-08-22T23:49:51.279Z,98560.41
2022-08-22T23:52:18.114Z,98559.53
2022-08-22T23:54:44.973Z,98560.41
2022-08-22T23:57:12.807Z,98560.41
2022-08-22T23:59:48.059Z,98560.53
